Flight Track Log - Related Links

Times and Time Zones

All times are in EST time to prevent confusion due to time zone crossing. See the EJA922 flight status page for this flight to view local times or setup timezone preferences in your user account.

Time Position Orientation Groundspeed Altitude Reporting Facility
EST Latitude Longitude Course Direction KTS MPH feet Rate Location/Type
Fri 06:34:11 PM 34.1858 -118.4867 128° Southeast 194 223 41,000  Level Los Angeles Center
Fri 06:35:13 PM 34.1519 -118.4342 128° Southeast 225 259 5,200 -15,919 Descending Los Angeles Center
Fri 06:36:15 PM 34.2097 -118.4019 25° Northeast 266 306 8,100 2,371 Climbing Los Angeles Center
Fri 06:37:17 PM 34.2897 -118.4161 352° North 293 337 10,100 2,371 Climbing Los Angeles Center
Fri 06:38:19 PM 34.4058 -118.3608 21° North 379 436 13,000 3,387 Climbing Los Angeles Center
Fri 06:39:21 PM 34.4886 -118.2947 33° Northeast 352 405 17,100 3,387 Climbing Los Angeles Center
Fri 06:40:23 PM 34.5458 -118.2014 53° Northeast 344 396 20,000 2,613 Climbing Los Angeles Center
Fri 06:41:25 PM 34.6147 -118.0917 53° Northeast 371 427 22,500 2,323 Climbing Los Angeles Center
Fri 06:42:27 PM 34.6419 -117.9736 74° East 363 418 24,800 2,371 Climbing Los Angeles Center
Fri 06:43:29 PM 34.6558 -117.8444 83° East 384 442 27,400 1,790 Climbing Los Angeles Center
Fri 06:44:31 PM 34.6711 -117.6981 83° East 429 494 28,500 919 Climbing Los Angeles Center
Fri 06:45:33 PM 34.6878 -117.5314 83° East 497 572 29,300 1,113 Climbing Los Angeles Center
Fri 06:46:35 PM 34.7106 -117.3131 83° East 547 629 30,800 2,032 Climbing Los Angeles Center
Fri 06:47:37 PM 34.7294 -117.1253 83° East 563 648 33,500 1,935 Climbing Los Angeles Center
Fri 06:48:39 PM 34.7478 -116.9431 83° East 551 634 34,800 1,548 Climbing Los Angeles Center
Fri 06:49:41 PM 34.7669 -116.7531 83° East 567 652 36,700 2,129 Climbing Los Angeles Center
Fri 06:50:43 PM 34.7872 -116.5725 82° East 546 628 39,200 1,694 Climbing Los Angeles Center
Fri 06:51:45 PM 34.8403 -116.3600 73° East 547 629 40,200 774 Climbing Los Angeles Center
Fri 06:52:47 PM 34.8883 -116.1803 72° East 557 641 40,800 387 Climbing Los Angeles Center
Fri 06:53:49 PM 34.9381 -115.9950 72° East 571 657 41,000 97 Climbing Los Angeles Center
Fri 06:54:51 PM 34.9881 -115.8050 72° East 584 672 41,000 -48 Level Los Angeles Center
Fri 06:55:53 PM 35.0406 -115.6097 72° East 600 690 40,900 -49 Descending Los Angeles Center
Fri 06:56:54 PM 35.0925 -115.4133 72° East 607 699 40,900 49 Level Los Angeles Center
Fri 06:57:56 PM 35.1497 -115.1942 72° East 611 703 41,000 48 Climbing Los Angeles Center
Fri 06:58:58 PM 35.2022 -114.9969 72° East 614 707 41,000  Level Los Angeles Center
Fri 07:00:00 PM 35.2514 -114.8047 73° East 602 693 41,000 -97 Level Los Angeles Center
Fri 07:01:02 PM 35.3100 -114.5736 73° East 597 687 40,800 -484 Descending Los Angeles Center
Fri 07:02:04 PM 35.3592 -114.3764 73° East 609 701 40,000 -726 Descending Los Angeles Center
Fri 07:03:06 PM 35.4100 -114.1733 73° East 625 719 39,300 -484 Descending Los Angeles Center
Fri 07:04:08 PM 35.4647 -113.9500 73° East 632 727 39,000 -145 Descending Los Angeles Center
Fri 07:05:10 PM 35.5164 -113.7425 73° East 638 734 39,000  Level Los Angeles Center
Fri 07:06:12 PM 35.5678 -113.5336 73° East 641 738 39,000  Level Los Angeles Center
Fri 07:07:14 PM 35.6183 -113.3264 73° East 635 731 39,000  Level Los Angeles Center
Fri 07:08:16 PM 35.6717 -113.1008 74° East 628 723 39,000  Level Los Angeles Center
Fri 07:09:17 PM 35.7183 -112.9122 73° East 626 720 39,000  Level Los Angeles Center
Fri 07:10:19 PM 35.7661 -112.7036 74° East 628 723 39,000  Level Los Angeles Center
Fri 07:11:21 PM 35.8158 -112.4967 73° East 629 724 39,000  Level Los Angeles Center
Fri 07:12:23 PM 35.8733 -112.2489 74° East 628 723 39,000  Level Los Angeles Center
Fri 07:13:25 PM 35.9217 -112.0403 74° East 632 727 39,000  Level Los Angeles Center
Fri 07:14:27 PM 35.9675 -111.8325 75° East 634 730 39,000  Level Los Angeles Center
Fri 07:15:29 PM 36.0144 -111.6256 74° East 632 727 39,000  Level Los Angeles Center
Fri 07:16:04 PM 36.0419 -111.5031 74° East 630 725 39,000  Level Denver Center
Fri 07:17:06 PM 36.0961 -111.2969 72° East 632 727 39,000  Level Denver Center
Fri 07:18:08 PM 36.2025 -111.0683 60° Northeast 638 734 39,000  Level Denver Center
Fri 07:19:10 PM 36.2939 -110.8772 59° Northeast 643 740 39,000  Level Denver Center
Fri 07:20:12 PM 36.3856 -110.6856 59° Northeast 644 741 39,000  Level Denver Center
Fri 07:21:14 PM 36.4750 -110.4939 60° Northeast 646 743 39,000  Level Denver Center
Fri 07:22:16 PM 36.5642 -110.3028 60° Northeast 645 742 39,000  Level Denver Center
Fri 07:23:18 PM 36.6661 -110.0786 60° Northeast 642 739 39,000  Level Denver Center
Fri 07:24:20 PM 36.7525 -109.8936 60° Northeast 643 740 39,000  Level Denver Center
Fri 07:25:22 PM 36.8372 -109.7064 60° Northeast 643 740 39,000  Level Denver Center
Fri 07:26:24 PM 36.9367 -109.4883 60° Northeast 643 740 39,000  Level Denver Center
Fri 07:27:25 PM 37.0211 -109.3008 61° Northeast 643 740 39,000  Level Denver Center
Fri 07:28:27 PM 37.1192 -109.0828 61° Northeast 643 740 39,000  Level Denver Center
Fri 07:29:29 PM 37.2033 -108.8947 61° Northeast 643 740 39,000  Level Denver Center
Fri 07:30:31 PM 37.3008 -108.6744 61° Northeast 644 741 39,000  Level Denver Center
Fri 07:31:34 PM 37.3836 -108.4842 61° Northeast 645 742 39,000  Level Denver Center
Fri 07:32:36 PM 37.4803 -108.2647 61° Northeast 644 741 39,000  Level Denver Center
Fri 07:33:38 PM 37.5631 -108.0733 61° Northeast 645 742 39,000  Level Denver Center
Fri 07:34:52 PM 37.6458 -107.8831 61° Northeast 645 742 39,000  Level Denver Center
Fri 07:35:54 PM 37.7544 -107.6317 61° Northeast 640 736 39,000  Level Denver Center
Fri 07:36:56 PM 37.8492 -107.4117 61° Northeast 640 736 39,000  Level Denver Center
Fri 07:37:58 PM 37.9292 -107.2197 62° Northeast 641 738 39,000 -387 Level Denver Center
Fri 07:39:00 PM 38.0125 -107.0253 61° Northeast 640 736 38,200 -1,403 Descending Denver Center
Fri 07:40:02 PM 38.1056 -106.8036 62° Northeast 638 734 36,100 -1,839 Descending Denver Center
Fri 07:41:04 PM 38.1844 -106.6125 62° Northeast 638 734 34,400 -1,680 Descending Denver Center
Fri 07:42:07 PM 38.2614 -106.4256 62° Northeast 631 726 32,600 -1,824 Descending Denver Center
Fri 07:43:09 PM 38.3492 -106.2100 63° Northeast 571 657 30,600 -1,456 Descending Denver Center
Fri 07:44:23 PM 38.4222 -106.0647 57° Northeast 480 552 29,300 -1,279 Descending Denver Center
Fri 07:45:25 PM 38.5461 -105.9358 39° Northeast 453 521 27,700 -1,452 Descending Denver Center
Fri 07:46:27 PM 38.6414 -105.8367 39° Northeast 440 506 26,300 -1,790 Descending Denver Center
Fri 07:47:29 PM 38.7344 -105.7433 38° Northeast 410 472 24,000 -1,161 Descending Denver Center
Fri 07:48:31 PM 38.8108 -105.6567 41° Northeast 389 448 23,900 -1,008 Descending Denver Center
Fri 07:49:34 PM 38.8964 -105.5514 44° Northeast 384 442 21,900 -1,728 Descending Denver Center
Fri 07:50:36 PM 38.9611 -105.4731 43° Northeast 378 435 20,300 -1,742 Descending Denver Center
Fri 07:51:38 PM 39.0481 -105.3661 44° Northeast 361 415 18,300 -1,742 Descending Denver Center
Fri 07:52:40 PM 39.1186 -105.2794 44° Northeast 355 409 16,700 -1,597 Descending Denver Center
Fri 07:53:42 PM 39.1833 -105.1819 49° Northeast 361 415 15,000 -1,500 Descending Denver Center
Fri 07:54:44 PM 39.1881 -105.0453 87° East 354 407 13,600 -1,452 Descending Denver Center
Fri 07:55:46 PM 39.1742 -104.9411 100° East 305 351 12,000 -1,210 Descending Denver Center
Fri 07:56:48 PM 39.2083 -104.8453 65° Northeast 268 308 11,100 -1,258 Descending Denver Center
Fri 07:57:50 PM 39.2728 -104.8381 North 235 270 9,400 -1,016 Descending Denver Center
Fri 07:58:52 PM 39.3344 -104.8408 358° North 204 235 9,000 -194 Descending Denver Center
Fri 07:59:54 PM 39.3897 -104.8425 359° North 201 231 9,000 -387 Level Denver Center
Fri 08:00:56 PM 39.4358 -104.8450 358° North 198 228 8,200 -968 Descending Denver Center
Fri 08:01:58 PM 39.4981 -104.8469 359° North 176 203 7,000 -864 Descending Denver Center
Fri 08:03:01 PM 39.5381 -104.8494 357° North 150 173 6,400 -528 Descending Denver Center
Fri 08:04:03 PM 39.5722 -104.8497 360° North 121 139 5,900 -484 Descending Denver Center
Fri 08:06:00 PM 39.5701 -104.8493 171° South  Level Estimated
Fri 08:13:00 PM 39.5701 -104.8493 North  Level Estimated

Login

Don't have an account? Register now (free) for customized features, flight alerts, and more!